Oxdrift, Canada
Current Conditions -  °F | °C
As of 10:00 PM on Wednesday 22 Oct 2014 (Local Time) from CYHD Reporting Station
Overcast Overcast  
Wind Chill: 54°   Ceiling: 3200
Heat Index: 54°   Visibility: 9mi
Dew Point: 41°   Wind: 17mph
Humidity: 62%   Direction: 190°S
Pressure: 29.9"   Gusts: NA
Location:  49.82°N, 92.98°W
Report Text: CYHD 230300Z AUTO 19015KT 9SM OVC032 12/05 A2990 RMK SLP136
Loading
Personal Weather Stations






























Interactive Weather Map New forecast layout! Learn more

10-Day Weather Forecast

Advertisements
Track Severe Weather on mobile